createdAt,value
2017-12-20T00:00:26.931Z,95990.27
2017-12-20T00:02:55.160Z,95995.78
2017-12-20T00:05:22.747Z,95995.55
2017-12-20T00:07:50.150Z,95994.23
2017-12-20T00:10:17.611Z,96001.03
2017-12-20T00:12:45.010Z,95998.94
2017-12-20T00:15:12.515Z,95994.48
2017-12-20T00:17:39.893Z,95993.39
2017-12-20T00:20:07.659Z,95998.45
2017-12-20T00:22:35.276Z,96001.13
2017-12-20T00:25:02.995Z,96003.41
2017-12-20T00:27:31.244Z,96000.91
2017-12-20T00:29:58.628Z,96002.80
2017-12-20T00:32:26.056Z,95994.69
2017-12-20T00:34:53.484Z,95996.48
2017-12-20T00:37:20.955Z,96004.45
2017-12-20T00:39:49.133Z,96004.64
2017-12-20T00:42:16.602Z,96009.66
2017-12-20T00:44:44.208Z,96010.05
2017-12-20T00:47:11.613Z,96004.34
2017-12-20T00:49:39.339Z,96005.47
2017-12-20T00:52:06.686Z,96010.02
2017-12-20T00:54:34.210Z,96011.14
2017-12-20T00:57:01.830Z,96014.30
2017-12-20T00:59:29.280Z,96012.27
2017-12-20T01:01:56.768Z,96019.66
2017-12-20T01:04:24.244Z,96017.01
2017-12-20T01:06:51.647Z,96023.97
2017-12-20T01:09:19.052Z,96021.84
2017-12-20T01:11:46.661Z,96020.36
2017-12-20T01:14:14.081Z,96014.42
2017-12-20T01:16:41.491Z,96014.78
2017-12-20T01:19:09.178Z,96019.20
2017-12-20T01:21:36.534Z,96016.55
2017-12-20T01:24:04.019Z,96008.98
2017-12-20T01:26:31.451Z,96013.84
2017-12-20T01:28:58.850Z,96019.09
2017-12-20T01:31:26.244Z,96013.81
2017-12-20T01:33:53.590Z,96021.70
2017-12-20T01:36:20.927Z,96016.03
2017-12-20T01:38:48.658Z,96015.77
2017-12-20T01:41:16.430Z,96021.67
2017-12-20T01:43:43.807Z,96012.70
2017-12-20T01:46:11.221Z,96012.52
2017-12-20T01:48:38.732Z,96014.45
2017-12-20T01:51:06.296Z,96014.37
2017-12-20T01:53:33.731Z,96016.47
2017-12-20T01:56:01.104Z,96014.09
2017-12-20T01:58:29.487Z,96008.00
2017-12-20T02:00:56.957Z,96010.61
2017-12-20T02:03:24.399Z,96018.35
2017-12-20T02:05:51.806Z,96013.73
2017-12-20T02:08:19.320Z,96017.59
2017-12-20T02:10:46.744Z,96012.85
2017-12-20T02:13:14.142Z,96012.81
2017-12-20T02:15:41.524Z,96015.02
2017-12-20T02:18:09.028Z,96015.38
2017-12-20T02:20:36.617Z,96009.36
2017-12-20T02:23:03.967Z,96016.00
2017-12-20T02:25:31.509Z,96009.48
2017-12-20T02:27:58.886Z,96006.67
2017-12-20T02:30:26.357Z,96016.50
2017-12-20T02:32:53.706Z,96014.44
2017-12-20T02:35:21.158Z,96010.88
2017-12-20T02:37:48.537Z,96011.02
2017-12-20T02:40:15.951Z,96015.60
2017-12-20T02:42:44.840Z,96013.06
2017-12-20T02:45:12.244Z,96009.34
2017-12-20T02:47:39.696Z,96005.86
2017-12-20T02:50:07.239Z,96012.33
2017-12-20T02:52:34.872Z,96006.42
2017-12-20T02:55:02.262Z,96002.30
2017-12-20T02:57:29.807Z,96007.77
2017-12-20T02:59:57.246Z,95996.89
2017-12-20T03:02:24.616Z,95998.88
2017-12-20T03:04:52.066Z,95992.13
2017-12-20T03:07:19.426Z,95991.22
2017-12-20T03:09:46.781Z,95994.64
2017-12-20T03:12:14.376Z,96001.05
2017-12-20T03:14:41.758Z,96000.15
2017-12-20T03:17:09.365Z,96004.55
2017-12-20T03:19:36.750Z,96004.98
2017-12-20T03:22:04.263Z,96005.02
2017-12-20T03:24:31.739Z,96003.62
2017-12-20T03:26:59.116Z,96001.50
2017-12-20T03:29:26.482Z,96006.98
2017-12-20T03:31:54.000Z,95998.73
2017-12-20T03:34:21.441Z,96003.28
2017-12-20T03:36:48.794Z,95998.30
2017-12-20T03:39:16.439Z,96004.86
2017-12-20T03:41:43.821Z,95998.84
2017-12-20T03:44:11.190Z,96004.41
2017-12-20T03:46:38.627Z,95997.71
2017-12-20T03:49:06.078Z,95999.38
2017-12-20T03:51:33.458Z,95994.68
2017-12-20T03:54:00.959Z,95991.59
2017-12-20T03:56:28.397Z,95997.09
2017-12-20T03:58:55.874Z,95994.68
2017-12-20T04:01:23.239Z,95998.48
2017-12-20T04:03:50.620Z,95995.42
2017-12-20T04:06:18.052Z,95998.74
2017-12-20T04:08:45.479Z,95996.45
2017-12-20T04:11:12.943Z,95999.39
2017-12-20T04:13:40.325Z,96005.55
2017-12-20T04:16:07.751Z,96007.45
2017-12-20T04:18:35.124Z,96006.70
2017-12-20T04:21:02.658Z,96010.44
2017-12-20T04:23:30.122Z,96009.28
2017-12-20T04:25:57.579Z,96016.20
2017-12-20T04:28:25.039Z,96015.55
2017-12-20T04:30:52.639Z,96025.17
2017-12-20T04:33:20.124Z,96021.32
2017-12-20T04:35:47.640Z,96024.93
2017-12-20T04:38:15.140Z,96018.57
2017-12-20T04:40:42.598Z,96030.50
2017-12-20T04:43:10.029Z,96033.56
2017-12-20T04:45:37.438Z,96033.02
2017-12-20T04:48:04.878Z,96037.64
2017-12-20T04:50:32.361Z,96037.16
2017-12-20T04:52:59.766Z,96027.92
2017-12-20T04:55:27.199Z,96032.47
2017-12-20T04:57:54.607Z,96035.30
2017-12-20T05:00:22.114Z,96039.77
2017-12-20T05:02:49.587Z,96041.64
2017-12-20T05:05:16.985Z,96043.35
2017-12-20T05:07:44.406Z,96050.22
2017-12-20T05:10:12.099Z,96049.50
2017-12-20T05:12:39.630Z,96054.79
2017-12-20T05:15:07.159Z,96059.95
2017-12-20T05:17:34.559Z,96060.55
2017-12-20T05:20:02.192Z,96057.69
2017-12-20T05:22:29.638Z,96061.70
2017-12-20T05:24:57.093Z,96056.05
2017-12-20T05:27:24.508Z,96059.48
2017-12-20T05:29:51.920Z,96061.45
2017-12-20T05:32:19.685Z,96059.41
2017-12-20T05:34:47.907Z,96061.84
2017-12-20T05:37:15.333Z,96064.88
2017-12-20T05:39:42.888Z,96070.55
2017-12-20T05:42:10.310Z,96074.94
2017-12-20T05:44:37.783Z,96069.91
2017-12-20T05:47:05.201Z,96065.55
2017-12-20T05:49:32.843Z,96065.94
2017-12-20T05:52:00.335Z,96068.75
2017-12-20T05:54:27.801Z,96068.73
2017-12-20T05:56:55.188Z,96066.73
2017-12-20T05:59:22.817Z,96069.57
2017-12-20T06:01:50.288Z,96072.66
2017-12-20T06:04:17.732Z,96073.63
2017-12-20T06:06:45.298Z,96064.91
2017-12-20T06:09:12.794Z,96068.52
2017-12-20T06:11:40.209Z,96069.51
2017-12-20T06:14:07.692Z,96075.59
2017-12-20T06:16:35.942Z,96074.89
2017-12-20T06:19:03.434Z,96077.33
2017-12-20T06:21:30.871Z,96080.24
2017-12-20T06:23:58.231Z,96080.31
2017-12-20T06:26:25.632Z,96083.42
2017-12-20T06:28:53.095Z,96087.43
2017-12-20T06:31:20.475Z,96091.81
2017-12-20T06:33:48.015Z,96093.30
2017-12-20T06:36:15.421Z,96087.27
2017-12-20T06:38:42.809Z,96089.38
2017-12-20T06:41:10.277Z,96085.83
2017-12-20T06:43:37.715Z,96087.70
2017-12-20T06:46:05.153Z,96085.69
2017-12-20T06:48:32.584Z,96087.64
2017-12-20T06:50:59.995Z,96087.82
2017-12-20T06:53:27.413Z,96087.69
2017-12-20T06:55:54.940Z,96093.41
2017-12-20T06:58:22.643Z,96085.84
2017-12-20T07:00:50.195Z,96086.03
2017-12-20T07:03:17.651Z,96087.38
2017-12-20T07:05:45.039Z,96088.35
2017-12-20T07:08:12.546Z,96093.05
2017-12-20T07:10:40.070Z,96092.73
2017-12-20T07:13:07.826Z,96098.25
2017-12-20T07:15:35.242Z,96099.58
2017-12-20T07:18:02.917Z,96099.44
2017-12-20T07:20:30.765Z,96098.98
2017-12-20T07:22:58.758Z,96102.34
2017-12-20T07:25:26.236Z,96103.45
2017-12-20T07:27:53.758Z,96105.75
2017-12-20T07:30:21.190Z,96114.97
2017-12-20T07:32:48.889Z,96112.27
2017-12-20T07:35:16.474Z,96120.46
2017-12-20T07:37:43.948Z,96122.38
2017-12-20T07:40:11.570Z,96119.48
2017-12-20T07:42:39.114Z,96123.26
2017-12-20T07:45:06.771Z,96125.06
2017-12-20T07:47:34.242Z,96133.57
2017-12-20T07:50:01.861Z,96133.27
2017-12-20T07:52:29.399Z,96134.72
2017-12-20T07:54:56.917Z,96140.66
2017-12-20T07:57:24.453Z,96136.91
2017-12-20T07:59:51.888Z,96138.17
2017-12-20T08:02:19.376Z,96143.75
2017-12-20T08:04:46.954Z,96145.33
2017-12-20T08:07:14.715Z,96147.24
2017-12-20T08:09:44.802Z,96147.88
2017-12-20T08:14:46.554Z,96150.27
2017-12-20T08:17:14.257Z,96151.33
2017-12-20T08:19:41.706Z,96148.16
2017-12-20T08:22:09.383Z,96158.57
2017-12-20T08:24:36.925Z,96159.34
2017-12-20T08:27:04.367Z,96161.42
2017-12-20T08:29:31.972Z,96165.69
2017-12-20T08:31:59.527Z,96166.73
2017-12-20T08:34:29.644Z,96169.25
2017-12-20T08:36:57.400Z,96171.19
2017-12-20T08:39:25.041Z,96179.15
2017-12-20T08:41:52.797Z,96179.55
2017-12-20T08:44:21.179Z,96173.31
2017-12-20T08:46:51.605Z,96175.64
2017-12-20T08:49:19.245Z,96177.24
2017-12-20T08:51:47.358Z,96171.39
2017-12-20T08:54:15.285Z,96172.72
2017-12-20T08:56:43.179Z,96176.28
2017-12-20T08:59:12.127Z,96165.42
2017-12-20T09:04:29.957Z,96169.97
2017-12-20T09:06:59.282Z,96168.92
2017-12-20T09:09:26.921Z,96171.17
2017-12-20T09:11:54.720Z,96161.86
2017-12-20T09:14:22.205Z,96163.98
2017-12-20T09:16:50.607Z,96163.57
2017-12-20T09:19:20.368Z,96164.73
2017-12-20T09:21:48.068Z,96165.83
2017-12-20T09:24:15.769Z,96159.02
2017-12-20T09:26:43.441Z,96157.94
2017-12-20T09:29:11.811Z,96151.28
2017-12-20T09:31:39.332Z,96154.53
2017-12-20T09:34:07.024Z,96152.28
2017-12-20T09:36:34.660Z,96154.55
2017-12-20T09:39:02.176Z,96146.02
2017-12-20T09:41:29.646Z,96147.36
2017-12-20T09:43:57.264Z,96136.48
2017-12-20T09:46:24.929Z,96135.28
2017-12-20T09:48:52.581Z,96138.38
2017-12-20T09:51:20.110Z,96138.98
2017-12-20T09:53:48.544Z,96133.33
2017-12-20T09:56:19.209Z,96135.94
2017-12-20T09:58:46.861Z,96137.68
2017-12-20T10:01:15.000Z,96137.14
2017-12-20T10:03:42.619Z,96131.42
2017-12-20T10:06:10.297Z,96137.30
2017-12-20T10:08:38.478Z,96135.40
2017-12-20T10:11:05.914Z,96130.66
2017-12-20T10:13:33.956Z,96133.11
2017-12-20T10:16:02.600Z,96132.54
2017-12-20T10:18:33.025Z,96130.48
2017-12-20T10:21:00.486Z,96132.34
2017-12-20T10:23:28.069Z,96124.19
2017-12-20T10:25:55.571Z,96120.38
2017-12-20T10:28:24.492Z,96119.28
2017-12-20T10:30:55.119Z,96111.80
2017-12-20T10:33:23.807Z,96114.11
2017-12-20T10:35:51.646Z,96111.31
2017-12-20T10:38:19.221Z,96115.16
2017-12-20T10:40:47.540Z,96114.37
2017-12-20T10:43:15.235Z,96109.39
2017-12-20T10:45:44.492Z,96102.48
2017-12-20T10:48:13.889Z,96097.56
2017-12-20T10:50:41.669Z,96094.64
2017-12-20T10:53:09.378Z,96095.98
2017-12-20T10:55:37.351Z,96096.48
2017-12-20T10:58:05.006Z,96083.78
2017-12-20T11:00:32.826Z,96088.53
2017-12-20T11:03:00.489Z,96090.27
2017-12-20T11:05:29.146Z,96093.68
2017-12-20T11:07:56.679Z,96078.92
2017-12-20T11:10:25.732Z,96076.77
2017-12-20T11:12:53.664Z,96079.41
2017-12-20T11:15:21.397Z,96080.69
2017-12-20T11:17:49.108Z,96083.13
2017-12-20T11:20:16.650Z,96070.61
2017-12-20T11:22:44.304Z,96083.12
2017-12-20T11:25:13.321Z,96070.70
2017-12-20T11:27:43.241Z,96072.23
2017-12-20T11:30:14.181Z,96071.09
2017-12-20T11:32:41.743Z,96066.16
2017-12-20T11:35:09.283Z,96062.36
2017-12-20T11:37:36.859Z,96065.25
2017-12-20T11:40:05.710Z,96057.80
2017-12-20T11:42:33.296Z,96062.48
2017-12-20T11:45:01.285Z,96052.95
2017-12-20T11:47:28.906Z,96056.63
2017-12-20T11:49:56.672Z,96058.00
2017-12-20T11:52:24.302Z,96059.36
2017-12-20T11:54:52.711Z,96058.98
2017-12-20T11:57:20.241Z,96050.41
2017-12-20T11:59:47.983Z,96057.86
2017-12-20T12:02:15.519Z,96049.50
2017-12-20T12:04:45.560Z,96042.45
2017-12-20T12:07:13.517Z,96046.78
2017-12-20T12:09:40.949Z,96036.92
2017-12-20T12:12:08.546Z,96037.09
2017-12-20T12:14:36.081Z,96033.69
2017-12-20T12:17:03.616Z,96033.91
2017-12-20T12:19:31.492Z,96027.63
2017-12-20T12:21:58.967Z,96028.94
2017-12-20T12:24:26.559Z,96029.51
2017-12-20T12:26:54.378Z,96033.52
2017-12-20T12:29:22.079Z,96031.81
2017-12-20T12:31:50.105Z,96029.70
2017-12-20T12:34:17.658Z,96023.81
2017-12-20T12:36:45.661Z,96031.23
2017-12-20T12:39:13.635Z,96030.64
2017-12-20T12:41:42.492Z,96029.70
2017-12-20T12:44:10.290Z,96030.64
2017-12-20T12:46:39.471Z,96028.40
2017-12-20T12:49:09.273Z,96028.95
2017-12-20T12:51:37.131Z,96024.98
2017-12-20T12:54:10.262Z,96024.63
2017-12-20T12:56:44.822Z,96019.72
2017-12-20T12:59:12.644Z,96024.80
2017-12-20T13:01:40.199Z,96022.72
2017-12-20T13:04:08.034Z,96031.42
2017-12-20T13:06:35.721Z,96023.79
2017-12-20T13:09:03.583Z,96028.56
2017-12-20T13:11:31.212Z,96032.34
2017-12-20T13:13:59.017Z,96023.98
2017-12-20T13:16:34.384Z,96024.91
2017-12-20T13:19:02.713Z,96032.34
2017-12-20T13:21:31.326Z,96031.38
2017-12-20T13:24:00.302Z,96036.69
2017-12-20T13:26:27.914Z,96026.99
2017-12-20T13:28:56.242Z,96024.36
2017-12-20T13:31:24.073Z,96031.52
2017-12-20T13:33:51.544Z,96030.03
2017-12-20T13:36:23.668Z,96033.62
2017-12-20T13:38:52.323Z,96033.83
2017-12-20T13:41:20.091Z,96030.59
2017-12-20T13:43:47.580Z,96034.59
2017-12-20T13:46:15.109Z,96034.58
2017-12-20T13:48:43.284Z,96027.60
2017-12-20T13:51:10.895Z,96034.34
2017-12-20T13:53:38.483Z,96036.69
2017-12-20T13:56:06.168Z,96030.83
2017-12-20T13:58:33.934Z,96032.00
2017-12-20T14:01:01.458Z,96036.70
2017-12-20T14:03:29.565Z,96046.45
2017-12-20T14:05:57.191Z,96048.14
2017-12-20T14:08:24.880Z,96046.81
2017-12-20T14:10:53.574Z,96048.53
2017-12-20T14:13:21.072Z,96046.03
2017-12-20T14:15:48.711Z,96045.65
2017-12-20T14:18:16.657Z,96050.03
2017-12-20T14:20:44.353Z,96044.52
2017-12-20T14:23:11.998Z,96042.98
2017-12-20T14:25:42.088Z,96041.87
2017-12-20T14:28:12.917Z,96040.50
2017-12-20T14:30:40.406Z,96040.08
2017-12-20T14:33:09.693Z,96038.40
2017-12-20T14:35:37.249Z,96035.58
2017-12-20T14:38:12.074Z,96036.88
2017-12-20T14:40:39.543Z,96041.42
2017-12-20T14:43:09.315Z,96044.84
2017-12-20T14:45:37.183Z,96047.84
2017-12-20T14:48:07.537Z,96046.35
2017-12-20T14:50:35.122Z,96053.39
2017-12-20T14:53:03.049Z,96047.84
2017-12-20T14:55:30.638Z,96057.89
2017-12-20T14:57:58.120Z,96053.73
2017-12-20T15:00:25.609Z,96055.03
2017-12-20T15:02:53.249Z,96054.06
2017-12-20T15:05:25.280Z,96053.36
2017-12-20T15:07:52.851Z,96062.82
2017-12-20T15:10:21.774Z,96064.52
2017-12-20T15:12:49.410Z,96074.39
2017-12-20T15:18:04.639Z,96073.14
2017-12-20T15:20:32.339Z,96076.38
2017-12-20T15:22:59.879Z,96082.30
2017-12-20T15:25:27.550Z,96076.07
2017-12-20T15:27:55.184Z,96077.77
2017-12-20T15:30:22.764Z,96083.97
2017-12-20T15:32:50.705Z,96085.99
2017-12-20T15:35:18.289Z,96085.86
2017-12-20T15:37:45.868Z,96086.25
2017-12-20T15:40:13.511Z,96098.37
2017-12-20T15:42:43.398Z,96098.04
2017-12-20T15:45:10.883Z,96096.09
2017-12-20T15:47:39.608Z,96102.53
2017-12-20T15:50:07.172Z,96099.89
2017-12-20T15:52:34.855Z,96104.80
2017-12-20T15:55:04.871Z,96104.20
2017-12-20T15:57:32.369Z,96100.45
2017-12-20T16:00:02.221Z,96100.85
2017-12-20T16:02:29.822Z,96106.69
2017-12-20T16:04:57.352Z,96099.85
2017-12-20T16:07:24.825Z,96104.03
2017-12-20T16:09:52.350Z,96108.74
2017-12-20T16:12:19.792Z,96104.38
2017-12-20T16:14:47.250Z,96105.13
2017-12-20T16:17:15.028Z,96104.74
2017-12-20T16:19:42.597Z,96110.39
2017-12-20T16:22:10.010Z,96113.63
2017-12-20T16:24:37.369Z,96119.69
2017-12-20T16:27:04.792Z,96121.56
2017-12-20T16:29:32.136Z,96120.41
2017-12-20T16:31:59.540Z,96125.74
2017-12-20T16:34:26.939Z,96124.95
2017-12-20T16:36:54.354Z,96128.48
2017-12-20T16:39:21.822Z,96132.83
2017-12-20T16:41:49.220Z,96135.22
2017-12-20T16:44:16.750Z,96136.23
2017-12-20T16:46:44.154Z,96146.47
2017-12-20T16:49:11.578Z,96139.99
2017-12-20T16:51:39.111Z,96145.52
2017-12-20T16:54:06.471Z,96150.23
2017-12-20T16:56:33.955Z,96150.95
2017-12-20T16:59:01.345Z,96147.55
2017-12-20T17:01:28.940Z,96151.55
2017-12-20T17:03:56.407Z,96148.84
2017-12-20T17:06:23.807Z,96154.72
2017-12-20T17:08:51.244Z,96160.41
2017-12-20T17:11:18.631Z,96151.66
2017-12-20T17:13:46.039Z,96157.91
2017-12-20T17:16:13.406Z,96161.13
2017-12-20T17:21:04.362Z,96154.63
2017-12-20T17:23:31.774Z,96160.84
2017-12-20T17:25:59.121Z,96160.52
2017-12-20T17:28:26.464Z,96155.54
2017-12-20T17:30:54.326Z,96152.69
2017-12-20T17:33:21.817Z,96157.94
2017-12-20T17:35:49.620Z,96157.78
2017-12-20T17:38:17.163Z,96155.84
2017-12-20T17:40:44.549Z,96160.73
2017-12-20T17:43:12.023Z,96163.20
2017-12-20T17:45:39.447Z,96161.66
2017-12-20T17:48:08.017Z,96165.66
2017-12-20T17:50:35.458Z,96158.41
2017-12-20T17:53:03.064Z,96158.41
2017-12-20T17:55:30.425Z,96161.36
2017-12-20T17:57:57.858Z,96162.34
2017-12-20T18:00:25.300Z,96157.23
2017-12-20T18:02:52.724Z,96157.81
2017-12-20T18:05:20.600Z,96159.30
2017-12-20T18:07:47.997Z,96155.47
2017-12-20T18:10:15.543Z,96162.88
2017-12-20T18:12:42.965Z,96159.23
2017-12-20T18:15:10.412Z,96162.45
2017-12-20T18:17:37.781Z,96163.57
2017-12-20T18:20:05.230Z,96168.52
2017-12-20T18:22:32.618Z,96163.38
2017-12-20T18:25:00.012Z,96168.67
2017-12-20T18:27:27.451Z,96173.40
2017-12-20T18:29:54.979Z,96165.61
2017-12-20T18:32:22.369Z,96165.41
2017-12-20T18:34:49.842Z,96162.37
2017-12-20T18:37:17.445Z,96158.22
2017-12-20T18:39:44.890Z,96162.56
2017-12-20T18:42:12.496Z,96162.56
2017-12-20T18:44:39.902Z,96158.17
2017-12-20T18:47:07.318Z,96154.39
2017-12-20T18:49:34.746Z,96146.03
2017-12-20T18:52:02.270Z,96152.66
2017-12-20T18:54:29.680Z,96148.86
2017-12-20T18:56:57.062Z,96145.42
2017-12-20T18:59:24.415Z,96150.35
2017-12-20T19:01:51.838Z,96151.46
2017-12-20T19:04:19.220Z,96151.46
2017-12-20T19:06:46.607Z,96157.85
2017-12-20T19:09:14.037Z,96160.87
2017-12-20T19:11:41.435Z,96166.84
2017-12-20T19:14:08.959Z,96174.13
2017-12-20T19:16:36.335Z,96175.10
2017-12-20T19:19:03.810Z,96177.48
2017-12-20T19:21:31.191Z,96169.50
2017-12-20T19:23:59.194Z,96164.73
2017-12-20T19:26:26.606Z,96163.75
2017-12-20T19:28:54.104Z,96164.38
2017-12-20T19:31:21.566Z,96156.80
2017-12-20T19:33:48.931Z,96163.75
2017-12-20T19:36:16.366Z,96168.22
2017-12-20T19:38:43.710Z,96166.29
2017-12-20T19:41:11.135Z,96159.80
2017-12-20T19:43:38.521Z,96156.33
2017-12-20T19:46:05.893Z,96157.69
2017-12-20T19:48:33.436Z,96148.20
2017-12-20T19:51:00.881Z,96147.17
2017-12-20T19:53:28.247Z,96145.85
2017-12-20T19:55:55.683Z,96150.67
2017-12-20T19:58:23.117Z,96151.64
2017-12-20T20:00:50.540Z,96144.77
2017-12-20T20:03:17.916Z,96142.45
2017-12-20T20:05:45.347Z,96145.07
2017-12-20T20:08:12.762Z,96139.42
2017-12-20T20:10:40.272Z,96138.81
2017-12-20T20:13:07.730Z,96139.75
2017-12-20T20:15:35.098Z,96137.78
2017-12-20T20:18:02.682Z,96139.52
2017-12-20T20:20:30.015Z,96144.20
2017-12-20T20:22:57.426Z,96139.46
2017-12-20T20:25:24.788Z,96150.82
2017-12-20T20:27:52.207Z,96150.76
2017-12-20T20:30:19.597Z,96150.31
2017-12-20T20:32:47.060Z,96152.12
2017-12-20T20:35:14.509Z,96151.95
2017-12-20T20:37:41.938Z,96152.12
2017-12-20T20:40:09.289Z,96142.80
2017-12-20T20:42:36.779Z,96147.54
2017-12-20T20:45:04.148Z,96145.25
2017-12-20T20:47:31.526Z,96150.89
2017-12-20T20:49:58.914Z,96153.92
2017-12-20T20:52:26.393Z,96151.34
2017-12-20T20:54:53.791Z,96156.44
2017-12-20T20:57:21.174Z,96153.77
2017-12-20T20:59:48.568Z,96145.02
2017-12-20T21:02:16.059Z,96150.02
2017-12-20T21:04:43.436Z,96150.12
2017-12-20T21:07:10.806Z,96156.86
2017-12-20T21:09:38.208Z,96158.17
2017-12-20T21:12:05.619Z,96164.59
2017-12-20T21:14:33.008Z,96161.88
2017-12-20T21:17:00.434Z,96156.20
2017-12-20T21:19:28.196Z,96157.72
2017-12-20T21:21:55.595Z,96154.34
2017-12-20T21:24:23.106Z,96160.02
2017-12-20T21:26:50.584Z,96158.11
2017-12-20T21:29:17.966Z,96161.14
2017-12-20T21:31:45.387Z,96157.66
2017-12-20T21:34:12.746Z,96158.59
2017-12-20T21:36:40.124Z,96158.42
2017-12-20T21:39:07.556Z,96150.20
2017-12-20T21:41:34.915Z,96144.05
2017-12-20T21:44:02.378Z,96143.42
2017-12-20T21:46:29.882Z,96138.63
2017-12-20T21:48:57.292Z,96141.10
2017-12-20T21:51:24.686Z,96138.84
2017-12-20T21:53:52.042Z,96136.30
2017-12-20T21:56:19.556Z,96141.58
2017-12-20T21:58:46.904Z,96142.70
2017-12-20T22:01:14.297Z,96144.22
2017-12-20T22:03:41.685Z,96151.37
2017-12-20T22:06:09.158Z,96150.80
2017-12-20T22:08:36.583Z,96148.12
2017-12-20T22:11:03.982Z,96145.05
2017-12-20T22:13:31.471Z,96148.20
2017-12-20T22:15:58.865Z,96149.72
2017-12-20T22:18:26.206Z,96155.05
2017-12-20T22:20:53.552Z,96152.36
2017-12-20T22:23:20.957Z,96141.20
2017-12-20T22:25:48.315Z,96135.34
2017-12-20T22:28:15.682Z,96140.43
2017-12-20T22:30:43.070Z,96130.87
2017-12-20T22:33:10.452Z,96139.14
2017-12-20T22:35:37.858Z,96137.98
2017-12-20T22:38:05.242Z,96136.11
2017-12-20T22:40:32.608Z,96134.95
2017-12-20T22:43:00.019Z,96135.27
2017-12-20T22:45:27.419Z,96135.45
2017-12-20T22:47:54.766Z,96142.61
2017-12-20T22:50:22.207Z,96148.95
2017-12-20T22:52:49.595Z,96154.16
2017-12-20T22:55:16.974Z,96158.52
2017-12-20T22:57:44.323Z,96161.20
2017-12-20T23:00:11.715Z,96159.80
2017-12-20T23:02:39.168Z,96157.84
2017-12-20T23:05:06.575Z,96154.35
2017-12-20T23:07:33.946Z,96156.14
2017-12-20T23:10:01.330Z,96163.41
2017-12-20T23:12:28.707Z,96160.19
2017-12-20T23:14:56.052Z,96158.79
2017-12-20T23:17:23.495Z,96150.00
2017-12-20T23:19:50.916Z,96151.33
2017-12-20T23:22:18.290Z,96151.80
2017-12-20T23:24:45.687Z,96157.94
2017-12-20T23:27:13.026Z,96159.05
2017-12-20T23:29:40.406Z,96159.25
2017-12-20T23:32:07.785Z,96160.37
2017-12-20T23:34:35.174Z,96154.78
2017-12-20T23:37:02.578Z,96159.48
2017-12-20T23:39:29.975Z,96156.41
2017-12-20T23:41:57.355Z,96155.09
2017-12-20T23:44:24.752Z,96149.08
2017-12-20T23:46:52.114Z,96146.20
2017-12-20T23:49:19.526Z,96149.54
2017-12-20T23:51:46.944Z,96142.20
2017-12-20T23:54:14.302Z,96145.27
2017-12-20T23:56:41.852Z,96145.54
2017-12-20T23:59:09.213Z,96152.53
